sensor_id;sensor_type;location;lat;lon;timestamp;pressure;altitude;pressure_sealevel;temperature;humidity
72612;BME280;60655;52.182;4.474;2022-10-31T00:00:44;102114.41;;;13.96;82.26
72612;BME280;60655;52.182;4.474;2022-10-31T00:02:46;102090.00;;;13.85;82.43
72612;BME280;60655;52.182;4.474;2022-10-31T00:04:47;102110.72;;;13.97;82.71
72612;BME280;60655;52.182;4.474;2022-10-31T00:06:48;102123.06;;;13.98;81.54
72612;BME280;60655;52.182;4.474;2022-10-31T00:08:56;102096.78;;;13.81;82.35
72612;BME280;60655;52.182;4.474;2022-10-31T00:10:57;102114.63;;;13.94;82.21
72612;BME280;60655;52.182;4.474;2022-10-31T00:13:01;102108.25;;;13.95;82.01
72612;BME280;60655;52.182;4.474;2022-10-31T00:15:02;102110.72;;;13.90;82.49
72612;BME280;60655;52.182;4.474;2022-10-31T00:17:03;102123.88;;;14.05;82.17
72612;BME280;60655;52.182;4.474;2022-10-31T00:19:06;102115.66;;;13.73;83.23
72612;BME280;60655;52.182;4.474;2022-10-31T00:21:07;102117.91;;;13.90;82.84
72612;BME280;60655;52.182;4.474;2022-10-31T00:23:09;102128.38;;;13.91;82.25
72612;BME280;60655;52.182;4.474;2022-10-31T00:25:11;102117.31;;;13.68;83.04
72612;BME280;60655;52.182;4.474;2022-10-31T00:27:12;102117.31;;;13.68;82.92
72612;BME280;60655;52.182;4.474;2022-10-31T00:29:13;102097.59;;;13.69;82.82
72612;BME280;60655;52.182;4.474;2022-10-31T00:31:14;102145.44;;;13.90;82.37
72612;BME280;60655;52.182;4.474;2022-10-31T00:33:15;102126.97;;;13.75;82.29
72612;BME280;60655;52.182;4.474;2022-10-31T00:35:16;102131.69;;;13.80;82.67
72612;BME280;60655;52.182;4.474;2022-10-31T00:37:18;102124.28;;;13.69;81.86
72612;BME280;60655;52.182;4.474;2022-10-31T00:39:19;102088.31;;;13.25;83.20
72612;BME280;60655;52.182;4.474;2022-10-31T00:41:20;102125.34;;;13.81;82.52
72612;BME280;60655;52.182;4.474;2022-10-31T00:43:21;102136.00;;;13.88;82.74
72612;BME280;60655;52.182;4.474;2022-10-31T00:45:22;102133.97;;;13.76;82.71
72612;BME280;60655;52.182;4.474;2022-10-31T00:47:23;102119.59;;;13.84;83.13
72612;BME280;60655;52.182;4.474;2022-10-31T00:49:24;102124.72;;;13.79;83.07
72612;BME280;60655;52.182;4.474;2022-10-31T00:51:25;102102.72;;;13.64;82.61
72612;BME280;60655;52.182;4.474;2022-10-31T00:53:26;102133.97;;;13.76;82.66
72612;BME280;60655;52.182;4.474;2022-10-31T00:55:27;102144.63;;;13.90;83.07
72612;BME280;60655;52.182;4.474;2022-10-31T00:57:29;102136.84;;;13.81;82.29
72612;BME280;60655;52.182;4.474;2022-10-31T00:59:31;102139.69;;;13.67;82.92
72612;BME280;60655;52.182;4.474;2022-10-31T01:01:32;102121.41;;;13.64;82.65
72612;BME280;60655;52.182;4.474;2022-10-31T01:03:34;102109.69;;;13.65;83.18
72612;BME280;60655;52.182;4.474;2022-10-31T01:05:35;102096.78;;;13.55;82.99
72612;BME280;60655;52.182;4.474;2022-10-31T01:07:38;102106.00;;;13.46;82.77
72612;BME280;60655;52.182;4.474;2022-10-31T01:09:40;102141.34;;;13.68;82.84
72612;BME280;60655;52.182;4.474;2022-10-31T01:11:41;102132.50;;;13.74;82.77
72612;BME280;60655;52.182;4.474;2022-10-31T01:13:42;102109.69;;;13.58;83.04
72612;BME280;60655;52.182;4.474;2022-10-31T01:15:43;102125.72;;;13.71;83.38
72612;BME280;60655;52.182;4.474;2022-10-31T01:17:44;102100.88;;;13.71;83.59
72612;BME280;60655;52.182;4.474;2022-10-31T01:19:48;102115.66;;;13.73;82.96
72612;BME280;60655;52.182;4.474;2022-10-31T01:21:48;102118.34;;;13.73;82.67
72612;BME280;60655;52.182;4.474;2022-10-31T01:23:50;102105.81;;;13.67;83.34
72612;BME280;60655;52.182;4.474;2022-10-31T01:26:08;102110.50;;;13.59;82.82
72612;BME280;60655;52.182;4.474;2022-10-31T01:28:09;102115.44;;;13.62;83.92
72612;BME280;60655;52.182;4.474;2022-10-31T01:30:10;102121.81;;;13.61;84.11
72612;BME280;60655;52.182;4.474;2022-10-31T01:32:11;102117.50;;;13.60;83.85
72612;BME280;60655;52.182;4.474;2022-10-31T01:34:14;102121.63;;;13.69;83.82
72612;BME280;60655;52.182;4.474;2022-10-31T01:36:22;102100.69;;;13.79;83.05
72612;BME280;60655;52.182;4.474;2022-10-31T01:38:24;102110.94;;;13.69;83.08
72612;BME280;60655;52.182;4.474;2022-10-31T01:40:29;102109.72;;;13.84;83.10
72612;BME280;60655;52.182;4.474;2022-10-31T01:42:30;102092.44;;;13.67;83.23
72612;BME280;60655;52.182;4.474;2022-10-31T01:46:37;102096.75;;;13.68;82.89
72612;BME280;60655;52.182;4.474;2022-10-31T01:48:40;102090.19;;;13.71;83.61
72612;BME280;60655;52.182;4.474;2022-10-31T01:50:43;102095.53;;;13.77;83.35
72612;BME280;60655;52.182;4.474;2022-10-31T01:52:50;102083.41;;;13.68;83.21
72612;BME280;60655;52.182;4.474;2022-10-31T01:54:58;102101.72;;;13.84;83.17
72612;BME280;60655;52.182;4.474;2022-10-31T01:57:02;102094.91;;;13.75;83.21
72612;BME280;60655;52.182;4.474;2022-10-31T01:59:06;102092.25;;;13.49;83.76
72612;BME280;60655;52.182;4.474;2022-10-31T02:01:08;102108.66;;;13.66;83.50
72612;BME280;60655;52.182;4.474;2022-10-31T02:03:09;102105.81;;;13.54;83.42
72612;BME280;60655;52.182;4.474;2022-10-31T02:05:15;102088.78;;;13.55;83.04
72612;BME280;60655;52.182;4.474;2022-10-31T02:07:33;102102.72;;;13.44;83.78
72612;BME280;60655;52.182;4.474;2022-10-31T02:09:37;102094.50;;;13.39;83.40
72612;BME280;60655;52.182;4.474;2022-10-31T02:11:40;102084.81;;;13.31;83.37
72612;BME280;60655;52.182;4.474;2022-10-31T02:13:42;102112.97;;;13.40;83.67
72612;BME280;60655;52.182;4.474;2022-10-31T02:15:44;102107.63;;;13.27;84.11
72612;BME280;60655;52.182;4.474;2022-10-31T02:17:47;102075.31;;;12.96;84.55
72612;BME280;60655;52.182;4.474;2022-10-31T02:20:17;102103.63;;;13.10;84.71
72612;BME280;60655;52.182;4.474;2022-10-31T02:22:26;102108.22;;;13.16;84.47
72612;BME280;60655;52.182;4.474;2022-10-31T02:25:02;102098.97;;;13.18;84.80
72612;BME280;60655;52.182;4.474;2022-10-31T02:31:52;102096.13;;;13.27;85.80
72612;BME280;60655;52.182;4.474;2022-10-31T02:41:04;102097.34;;;13.17;85.01
72612;BME280;60655;52.182;4.474;2022-10-31T02:45:30;102087.41;;;12.98;84.76
72612;BME280;60655;52.182;4.474;2022-10-31T02:47:36;102086.94;;;12.81;84.55
72612;BME280;60655;52.182;4.474;2022-10-31T02:49:57;102089.81;;;12.80;85.08
72612;BME280;60655;52.182;4.474;2022-10-31T02:52:00;102096.56;;;12.76;85.05
72612;BME280;60655;52.182;4.474;2022-10-31T02:54:01;102095.72;;;12.75;85.68
72612;BME280;60655;52.182;4.474;2022-10-31T02:56:15;102093.28;;;12.80;85.16
72612;BME280;60655;52.182;4.474;2022-10-31T02:58:21;102093.47;;;12.72;84.86
72612;BME280;60655;52.182;4.474;2022-10-31T03:00:23;102091.81;;;12.71;85.29
72612;BME280;60655;52.182;4.474;2022-10-31T03:04:45;102085.03;;;12.62;85.53
72612;BME280;60655;52.182;4.474;2022-10-31T03:09:26;102085.97;;;12.48;85.97
72612;BME280;60655;52.182;4.474;2022-10-31T03:11:34;102091.59;;;12.60;86.32
72612;BME280;60655;52.182;4.474;2022-10-31T03:13:46;102102.63;;;12.57;86.83
72612;BME280;60655;52.182;4.474;2022-10-31T03:15:52;102095.69;;;12.62;86.83
72612;BME280;60655;52.182;4.474;2022-10-31T03:20:09;102072.84;;;12.46;86.03
72612;BME280;60655;52.182;4.474;2022-10-31T03:22:16;102095.47;;;12.57;85.58
72612;BME280;60655;52.182;4.474;2022-10-31T03:24:19;102087.03;;;12.54;85.45
72612;BME280;60655;52.182;4.474;2022-10-31T03:26:23;102087.44;;;12.50;85.63
72612;BME280;60655;52.182;4.474;2022-10-31T03:28:30;102092.31;;;12.47;86.09
72612;BME280;60655;52.182;4.474;2022-10-31T03:30:33;102101.38;;;12.52;85.89
72612;BME280;60655;52.182;4.474;2022-10-31T03:32:48;102101.81;;;12.56;85.51
72612;BME280;60655;52.182;4.474;2022-10-31T03:34:52;102101.19;;;12.54;86.00
72612;BME280;60655;52.182;4.474;2022-10-31T03:37:01;102089.28;;;12.50;85.70
72612;BME280;60655;52.182;4.474;2022-10-31T03:39:06;102098.25;;;12.42;86.10
72612;BME280;60655;52.182;4.474;2022-10-31T03:41:12;102097.84;;;12.39;86.07
72612;BME280;60655;52.182;4.474;2022-10-31T03:43:19;102093.94;;;12.35;85.95
72612;BME280;60655;52.182;4.474;2022-10-31T03:45:28;102078.81;;;12.14;86.07
72612;BME280;60655;52.182;4.474;2022-10-31T03:47:31;102094.91;;;12.27;86.21
72612;BME280;60655;52.182;4.474;2022-10-31T03:49:32;102101.28;;;12.33;85.62
72612;BME280;60655;52.182;4.474;2022-10-31T03:51:37;102101.47;;;12.31;85.93
72612;BME280;60655;52.182;4.474;2022-10-31T03:53:49;102086.50;;;12.30;85.97
72612;BME280;60655;52.182;4.474;2022-10-31T03:56:01;102099.06;;;12.36;86.18
72612;BME280;60655;52.182;4.474;2022-10-31T03:58:10;102093.69;;;12.30;85.91
72612;BME280;60655;52.182;4.474;2022-10-31T04:00:13;102100.00;;;12.22;85.57
72612;BME280;60655;52.182;4.474;2022-10-31T04:02:18;102099.75;;;12.17;86.06
72612;BME280;60655;52.182;4.474;2022-10-31T04:04:21;102093.13;;;12.06;85.81
72612;BME280;60655;52.182;4.474;2022-10-31T04:06:24;102076.91;;;12.01;85.31
72612;BME280;60655;52.182;4.474;2022-10-31T04:08:28;102095.75;;;12.00;85.89
72612;BME280;60655;52.182;4.474;2022-10-31T04:10:31;102103.41;;;12.09;86.35
72612;BME280;60655;52.182;4.474;2022-10-31T04:12:35;102091.63;;;11.97;86.27
72612;BME280;60655;52.182;4.474;2022-10-31T04:14:39;102103.69;;;11.93;86.62
72612;BME280;60655;52.182;4.474;2022-10-31T04:16:42;102112.38;;;12.02;86.42
72612;BME280;60655;52.182;4.474;2022-10-31T04:18:44;102111.53;;;12.01;86.95
72612;BME280;60655;52.182;4.474;2022-10-31T04:20:47;102118.56;;;12.09;86.34
72612;BME280;60655;52.182;4.474;2022-10-31T04:22:50;102117.38;;;11.90;85.63
72612;BME280;60655;52.182;4.474;2022-10-31T04:24:51;102121.44;;;11.86;86.22
72612;BME280;60655;52.182;4.474;2022-10-31T04:26:52;102116.28;;;11.78;86.20
72612;BME280;60655;52.182;4.474;2022-10-31T04:28:53;102125.94;;;11.86;86.12
72612;BME280;60655;52.182;4.474;2022-10-31T04:30:55;102101.94;;;11.58;87.14
72612;BME280;60655;52.182;4.474;2022-10-31T04:32:56;102124.47;;;11.76;87.33
72612;BME280;60655;52.182;4.474;2022-10-31T04:34:57;102125.44;;;11.75;87.60
72612;BME280;60655;52.182;4.474;2022-10-31T04:36:58;102113.97;;;11.75;87.53
72612;BME280;60655;52.182;4.474;2022-10-31T04:38:59;102118.56;;;11.81;87.10
72612;BME280;60655;52.182;4.474;2022-10-31T04:41:00;102112.63;;;11.86;86.77
72612;BME280;60655;52.182;4.474;2022-10-31T04:43:01;102112.22;;;11.82;86.62
72612;BME280;60655;52.182;4.474;2022-10-31T04:45:02;102105.97;;;11.75;86.43
72612;BME280;60655;52.182;4.474;2022-10-31T04:47:03;102105.44;;;11.79;86.29
72612;BME280;60655;52.182;4.474;2022-10-31T04:49:04;102104.97;;;11.76;87.03
72612;BME280;60655;52.182;4.474;2022-10-31T04:51:05;102081.59;;;11.71;87.07
72612;BME280;60655;52.182;4.474;2022-10-31T04:53:06;102074.31;;;11.59;87.28
72612;BME280;60655;52.182;4.474;2022-10-31T04:55:08;102076.00;;;11.66;86.96
72612;BME280;60655;52.182;4.474;2022-10-31T04:57:10;102085.78;;;11.80;87.19
72612;BME280;60655;52.182;4.474;2022-10-31T04:59:11;102090.00;;;11.75;87.08
72612;BME280;60655;52.182;4.474;2022-10-31T05:01:12;102104.34;;;11.74;86.80
72612;BME280;60655;52.182;4.474;2022-10-31T05:03:13;102098.06;;;11.60;86.96
72612;BME280;60655;52.182;4.474;2022-10-31T05:05:17;102091.47;;;11.56;86.91
72612;BME280;60655;52.182;4.474;2022-10-31T05:07:20;102094.53;;;11.53;86.28
72612;BME280;60655;52.182;4.474;2022-10-31T05:09:21;102098.84;;;11.54;87.21
72612;BME280;60655;52.182;4.474;2022-10-31T05:11:41;102104.75;;;11.49;87.07
72612;BME280;60655;52.182;4.474;2022-10-31T05:13:42;102093.75;;;11.59;86.96
72612;BME280;60655;52.182;4.474;2022-10-31T05:15:43;102084.09;;;11.52;86.97
72612;BME280;60655;52.182;4.474;2022-10-31T05:17:44;102094.28;;;11.48;87.54
72612;BME280;60655;52.182;4.474;2022-10-31T05:19:47;102095.38;;;11.54;87.91
72612;BME280;60655;52.182;4.474;2022-10-31T05:21:48;102084.97;;;11.37;87.70
72612;BME280;60655;52.182;4.474;2022-10-31T05:23:49;102083.25;;;11.51;86.81
72612;BME280;60655;52.182;4.474;2022-10-31T05:25:50;102081.09;;;11.40;86.58
72612;BME280;60655;52.182;4.474;2022-10-31T05:27:51;102069.19;;;11.36;87.00
72612;BME280;60655;52.182;4.474;2022-10-31T05:29:52;102077.25;;;11.42;87.97
72612;BME280;60655;52.182;4.474;2022-10-31T05:31:53;102052.03;;;11.38;87.84
72612;BME280;60655;52.182;4.474;2022-10-31T05:33:54;102084.84;;;11.45;88.05
72612;BME280;60655;52.182;4.474;2022-10-31T05:35:55;102068.06;;;11.45;88.36
72612;BME280;60655;52.182;4.474;2022-10-31T05:37:57;102076.31;;;11.57;87.96
72612;BME280;60655;52.182;4.474;2022-10-31T05:40:02;102064.44;;;11.53;87.39
72612;BME280;60655;52.182;4.474;2022-10-31T05:42:03;102071.59;;;11.52;88.29
72612;BME280;60655;52.182;4.474;2022-10-31T05:44:04;102072.63;;;11.51;88.38
72612;BME280;60655;52.182;4.474;2022-10-31T05:46:05;102056.03;;;11.49;88.91
72612;BME280;60655;52.182;4.474;2022-10-31T05:48:08;102053.81;;;11.53;88.79
72612;BME280;60655;52.182;4.474;2022-10-31T05:50:09;102067.75;;;11.55;88.93
72612;BME280;60655;52.182;4.474;2022-10-31T05:52:10;102059.94;;;11.53;88.79
72612;BME280;60655;52.182;4.474;2022-10-31T05:54:11;102067.34;;;11.58;88.69
72612;BME280;60655;52.182;4.474;2022-10-31T05:56:12;102039.88;;;11.29;88.82
72612;BME280;60655;52.182;4.474;2022-10-31T05:58:13;102035.44;;;11.36;89.07
72612;BME280;60655;52.182;4.474;2022-10-31T06:00:14;102067.13;;;11.59;88.85
72612;BME280;60655;52.182;4.474;2022-10-31T06:02:15;102039.81;;;11.44;88.86
72612;BME280;60655;52.182;4.474;2022-10-31T06:04:16;102065.69;;;11.57;89.12
72612;BME280;60655;52.182;4.474;2022-10-31T06:06:18;102063.09;;;11.63;89.06
72612;BME280;60655;52.182;4.474;2022-10-31T06:08:19;102045.56;;;11.47;89.09
72612;BME280;60655;52.182;4.474;2022-10-31T06:10:20;102059.13;;;11.53;89.18
72612;BME280;60655;52.182;4.474;2022-10-31T06:12:22;102057.09;;;11.55;88.70
72612;BME280;60655;52.182;4.474;2022-10-31T06:14:23;102059.53;;;11.56;88.65
72612;BME280;60655;52.182;4.474;2022-10-31T06:16:24;102063.63;;;11.52;88.65
72612;BME280;60655;52.182;4.474;2022-10-31T06:18:26;102064.44;;;11.53;88.97
72612;BME280;60655;52.182;4.474;2022-10-31T06:20:27;102061.59;;;11.54;88.80
72612;BME280;60655;52.182;4.474;2022-10-31T06:22:28;102062.75;;;11.45;89.23
72612;BME280;60655;52.182;4.474;2022-10-31T06:24:28;102031.50;;;11.32;89.21
72612;BME280;60655;52.182;4.474;2022-10-31T06:26:31;102061.88;;;11.66;88.27
72612;BME280;60655;52.182;4.474;2022-10-31T06:28:32;102060.81;;;11.60;88.85
72612;BME280;60655;52.182;4.474;2022-10-31T06:30:34;102067.53;;;11.56;89.39
72612;BME280;60655;52.182;4.474;2022-10-31T06:32:38;102039.69;;;11.52;88.88
72612;BME280;60655;52.182;4.474;2022-10-31T06:34:39;102054.63;;;11.53;89.04
72612;BME280;60655;52.182;4.474;2022-10-31T06:36:40;102067.34;;;11.58;89.25
72612;BME280;60655;52.182;4.474;2022-10-31T06:38:43;102067.84;;;11.68;88.89
72612;BME280;60655;52.182;4.474;2022-10-31T06:40:43;102055.34;;;11.68;89.66
72612;BME280;60655;52.182;4.474;2022-10-31T06:42:44;102064.78;;;11.71;89.98
72612;BME280;60655;52.182;4.474;2022-10-31T06:44:45;102056.88;;;11.77;89.33
72612;BME280;60655;52.182;4.474;2022-10-31T06:46:47;102055.50;;;11.81;89.63
72612;BME280;60655;52.182;4.474;2022-10-31T06:48:48;102063.50;;;11.88;89.72
72612;BME280;60655;52.182;4.474;2022-10-31T06:50:49;102064.13;;;11.90;89.64
72612;BME280;60655;52.182;4.474;2022-10-31T06:52:54;102054.88;;;11.86;89.91
72612;BME280;60655;52.182;4.474;2022-10-31T06:54:57;102055.59;;;11.73;90.44
72612;BME280;60655;52.182;4.474;2022-10-31T06:56:58;102054.84;;;11.79;90.92
72612;BME280;60655;52.182;4.474;2022-10-31T06:58:59;102075.16;;;11.87;90.68
72612;BME280;60655;52.182;4.474;2022-10-31T07:01:00;102073.75;;;11.91;90.58
72612;BME280;60655;52.182;4.474;2022-10-31T07:03:05;102072.22;;;12.03;90.11
72612;BME280;60655;52.182;4.474;2022-10-31T07:05:06;102067.66;;;11.97;90.04
72612;BME280;60655;52.182;4.474;2022-10-31T07:07:07;102080.22;;;12.03;89.81
72612;BME280;60655;52.182;4.474;2022-10-31T07:09:08;102047.13;;;11.91;90.36
72612;BME280;60655;52.182;4.474;2022-10-31T07:11:09;102079.19;;;12.04;90.11
72612;BME280;60655;52.182;4.474;2022-10-31T07:13:13;102076.38;;;12.12;90.03
72612;BME280;60655;52.182;4.474;2022-10-31T07:15:14;102074.50;;;12.06;90.14
72612;BME280;60655;52.182;4.474;2022-10-31T07:17:15;102090.09;;;12.16;90.21
72612;BME280;60655;52.182;4.474;2022-10-31T07:19:17;102074.06;;;12.03;90.03
72612;BME280;60655;52.182;4.474;2022-10-31T07:21:19;102086.03;;;12.20;89.98
72612;BME280;60655;52.182;4.474;2022-10-31T07:23:21;102086.63;;;12.15;89.94
72612;BME280;60655;52.182;4.474;2022-10-31T07:25:23;102085.06;;;12.28;90.52
72612;BME280;60655;52.182;4.474;2022-10-31T07:27:24;102065.78;;;12.26;90.23
72612;BME280;60655;52.182;4.474;2022-10-31T07:29:25;102084.91;;;12.36;90.37
72612;BME280;60655;52.182;4.474;2022-10-31T07:31:26;102078.63;;;12.15;90.60
72612;BME280;60655;52.182;4.474;2022-10-31T07:33:27;102089.22;;;12.43;90.27
72612;BME280;60655;52.182;4.474;2022-10-31T07:35:28;102080.56;;;12.28;90.28
72612;BME280;60655;52.182;4.474;2022-10-31T07:37:30;102080.84;;;12.40;90.14
72612;BME280;60655;52.182;4.474;2022-10-31T07:39:31;102087.00;;;12.47;90.57
72612;BME280;60655;52.182;4.474;2022-10-31T07:41:32;102085.16;;;12.41;90.12
72612;BME280;60655;52.182;4.474;2022-10-31T07:43:33;102084.75;;;12.50;90.76
72612;BME280;60655;52.182;4.474;2022-10-31T07:45:34;102086.25;;;12.60;90.04
72612;BME280;60655;52.182;4.474;2022-10-31T07:47:49;102083.31;;;12.48;90.88
72612;BME280;60655;52.182;4.474;2022-10-31T07:49:50;102085.81;;;12.56;90.78
72612;BME280;60655;52.182;4.474;2022-10-31T07:51:51;102082.16;;;12.64;90.46
72612;BME280;60655;52.182;4.474;2022-10-31T07:53:53;102085.22;;;12.61;90.05
72612;BME280;60655;52.182;4.474;2022-10-31T07:55:54;102087.66;;;12.56;90.90
72612;BME280;60655;52.182;4.474;2022-10-31T07:57:59;102080.53;;;12.63;90.63
72612;BME280;60655;52.182;4.474;2022-10-31T08:00:05;102087.50;;;12.64;90.37
72612;BME280;60655;52.182;4.474;2022-10-31T08:02:07;102091.81;;;12.71;90.13
72612;BME280;60655;52.182;4.474;2022-10-31T08:04:10;102087.31;;;12.72;90.47
72612;BME280;60655;52.182;4.474;2022-10-31T08:06:11;102083.03;;;12.77;90.56
72612;BME280;60655;52.182;4.474;2022-10-31T08:08:14;102082.19;;;12.77;89.90
72612;BME280;60655;52.182;4.474;2022-10-31T08:10:15;102069.47;;;12.66;90.06
72612;BME280;60655;52.182;4.474;2022-10-31T08:12:16;102069.06;;;12.69;90.48
72612;BME280;60655;52.182;4.474;2022-10-31T08:14:17;102079.78;;;12.89;90.13
72612;BME280;60655;52.182;4.474;2022-10-31T08:16:18;102079.75;;;12.82;89.89
72612;BME280;60655;52.182;4.474;2022-10-31T08:18:19;102084.69;;;12.85;90.03
72612;BME280;60655;52.182;4.474;2022-10-31T08:20:22;102075.47;;;12.88;90.04
72612;BME280;60655;52.182;4.474;2022-10-31T08:22:23;102092.53;;;13.00;89.66
72612;BME280;60655;52.182;4.474;2022-10-31T08:24:24;102090.31;;;13.10;88.95
72612;BME280;60655;52.182;4.474;2022-10-31T08:26:27;102089.88;;;13.06;88.79
72612;BME280;60655;52.182;4.474;2022-10-31T08:28:28;102088.00;;;13.00;88.78
72612;BME280;60655;52.182;4.474;2022-10-31T08:30:32;102091.72;;;12.99;89.09
72612;BME280;60655;52.182;4.474;2022-10-31T08:32:34;102090.88;;;12.92;88.83
72612;BME280;60655;52.182;4.474;2022-10-31T08:34:36;102084.97;;;13.10;88.57
72612;BME280;60655;52.182;4.474;2022-10-31T08:36:37;102079.38;;;12.85;89.30
72612;BME280;60655;52.182;4.474;2022-10-31T08:38:38;102057.19;;;12.78;89.47
72612;BME280;60655;52.182;4.474;2022-10-31T08:40:39;102091.31;;;13.09;88.99
72612;BME280;60655;52.182;4.474;2022-10-31T08:42:41;102076.13;;;12.96;89.05
72612;BME280;60655;52.182;4.474;2022-10-31T08:44:42;102084.13;;;12.96;89.17
72612;BME280;60655;52.182;4.474;2022-10-31T08:46:43;102081.69;;;13.08;88.79
72612;BME280;60655;52.182;4.474;2022-10-31T08:48:44;102087.81;;;13.02;89.25
72612;BME280;60655;52.182;4.474;2022-10-31T08:50:47;102088.66;;;13.09;88.98
72612;BME280;60655;52.182;4.474;2022-10-31T08:52:49;102076.34;;;13.08;88.58
72612;BME280;60655;52.182;4.474;2022-10-31T08:54:50;102082.69;;;13.00;88.66
72612;BME280;60655;52.182;4.474;2022-10-31T08:56:54;102067.50;;;13.07;88.61
72612;BME280;60655;52.182;4.474;2022-10-31T08:58:56;102077.56;;;13.05;88.61
72612;BME280;60655;52.182;4.474;2022-10-31T09:00:59;102069.97;;;13.09;88.46
72612;BME280;60655;52.182;4.474;2022-10-31T09:03:06;102072.22;;;13.05;89.00
72612;BME280;60655;52.182;4.474;2022-10-31T09:05:09;102071.81;;;12.95;89.22
72612;BME280;60655;52.182;4.474;2022-10-31T09:07:10;102066.91;;;12.99;89.83
72612;BME280;60655;52.182;4.474;2022-10-31T09:09:11;102066.66;;;13.00;88.92
72612;BME280;60655;52.182;4.474;2022-10-31T09:11:12;102065.22;;;12.84;89.20
72612;BME280;60655;52.182;4.474;2022-10-31T09:13:15;102069.09;;;12.82;89.81
72612;BME280;60655;52.182;4.474;2022-10-31T09:15:17;102065.25;;;12.98;89.58
72612;BME280;60655;52.182;4.474;2022-10-31T09:17:18;102053.75;;;13.04;89.08
72612;BME280;60655;52.182;4.474;2022-10-31T09:19:19;102058.69;;;12.94;90.05
72612;BME280;60655;52.182;4.474;2022-10-31T09:21:20;102055.59;;;12.97;90.05
72612;BME280;60655;52.182;4.474;2022-10-31T09:23:22;102055.19;;;13.00;89.94
72612;BME280;60655;52.182;4.474;2022-10-31T09:25:24;102034.91;;;12.99;89.92
72612;BME280;60655;52.182;4.474;2022-10-31T09:27:25;102054.25;;;13.27;89.46
72612;BME280;60655;52.182;4.474;2022-10-31T09:29:26;102021.16;;;13.15;89.95
72612;BME280;60655;52.182;4.474;2022-10-31T09:31:28;102039.03;;;13.34;89.39
72612;BME280;60655;52.182;4.474;2022-10-31T09:33:31;102034.94;;;13.38;89.17
72612;BME280;60655;52.182;4.474;2022-10-31T09:35:33;102039.69;;;13.56;89.12
72612;BME280;60655;52.182;4.474;2022-10-31T09:37:33;102035.97;;;13.57;88.70
72612;BME280;60655;52.182;4.474;2022-10-31T09:39:35;102039.44;;;13.58;88.70
72612;BME280;60655;52.182;4.474;2022-10-31T09:42:05;102032.47;;;13.63;88.36
72612;BME280;60655;52.182;4.474;2022-10-31T09:44:33;102032.25;;;13.58;88.47
72612;BME280;60655;52.182;4.474;2022-10-31T09:46:44;102023.63;;;13.63;88.15
72612;BME280;60655;52.182;4.474;2022-10-31T09:49:23;102016.88;;;13.47;89.05
72612;BME280;60655;52.182;4.474;2022-10-31T09:51:30;102005.56;;;13.58;88.35
72612;BME280;60655;52.182;4.474;2022-10-31T09:53:34;102013.97;;;13.75;87.69
72612;BME280;60655;52.182;4.474;2022-10-31T09:55:40;102009.06;;;13.65;88.18
72612;BME280;60655;52.182;4.474;2022-10-31T09:57:42;102004.75;;;13.58;88.53
72612;BME280;60655;52.182;4.474;2022-10-31T09:59:44;102007.81;;;13.68;88.26
72612;BME280;60655;52.182;4.474;2022-10-31T10:01:49;102005.75;;;13.83;87.88
72612;BME280;60655;52.182;4.474;2022-10-31T10:03:57;101998.97;;;13.80;88.16
72612;BME280;60655;52.182;4.474;2022-10-31T10:06:19;102005.13;;;13.81;88.25
72612;BME280;60655;52.182;4.474;2022-10-31T10:08:26;102003.44;;;13.93;88.31
72612;BME280;60655;52.182;4.474;2022-10-31T10:10:44;102003.84;;;13.97;88.19
72612;BME280;60655;52.182;4.474;2022-10-31T10:20:21;101989.66;;;14.09;88.10
72612;BME280;60655;52.182;4.474;2022-10-31T10:22:52;101994.38;;;14.07;88.23
72612;BME280;60655;52.182;4.474;2022-10-31T10:29:31;101975.78;;;14.26;87.67
72612;BME280;60655;52.182;4.474;2022-10-31T10:31:38;101961.63;;;14.18;87.98
72612;BME280;60655;52.182;4.474;2022-10-31T10:33:45;101947.50;;;14.11;87.87
72612;BME280;60655;52.182;4.474;2022-10-31T10:38:03;101955.03;;;14.28;87.96
72612;BME280;60655;52.182;4.474;2022-10-31T10:40:16;101942.47;;;14.28;88.23
72612;BME280;60655;52.182;4.474;2022-10-31T10:42:17;101945.75;;;14.43;87.85
72612;BME280;60655;52.182;4.474;2022-10-31T10:44:44;101929.81;;;14.55;87.96
72612;BME280;60655;52.182;4.474;2022-10-31T10:47:06;101928.47;;;14.71;87.42
72612;BME280;60655;52.182;4.474;2022-10-31T10:49:37;101926.31;;;14.86;86.36
72612;BME280;60655;52.182;4.474;2022-10-31T10:52:00;101930.63;;;14.87;85.92
72612;BME280;60655;52.182;4.474;2022-10-31T10:54:24;101933.34;;;14.80;86.08
72612;BME280;60655;52.182;4.474;2022-10-31T10:59:15;101922.31;;;14.70;86.49
72612;BME280;60655;52.182;4.474;2022-10-31T11:01:17;101921.44;;;14.76;86.18
72612;BME280;60655;52.182;4.474;2022-10-31T11:03:19;101920.25;;;14.72;86.49
72612;BME280;60655;52.182;4.474;2022-10-31T11:05:33;101927.75;;;14.57;86.82
72612;BME280;60655;52.182;4.474;2022-10-31T11:07:39;101923.59;;;14.61;87.00
72612;BME280;60655;52.182;4.474;2022-10-31T11:09:40;101922.53;;;14.69;86.39
72612;BME280;60655;52.182;4.474;2022-10-31T11:11:41;101923.84;;;14.53;87.15
72612;BME280;60655;52.182;4.474;2022-10-31T11:13:45;101912.13;;;14.54;87.35
72612;BME280;60655;52.182;4.474;2022-10-31T11:15:56;101923.22;;;14.58;87.57
72612;BME280;60655;52.182;4.474;2022-10-31T11:17:59;101925.25;;;14.62;87.60
72612;BME280;60655;52.182;4.474;2022-10-31T11:22:22;101902.38;;;14.66;87.20
72612;BME280;60655;52.182;4.474;2022-10-31T11:24:25;101911.63;;;14.70;87.34
72612;BME280;60655;52.182;4.474;2022-10-31T11:26:29;101913.63;;;14.75;87.71
72612;BME280;60655;52.182;4.474;2022-10-31T11:28:31;101904.69;;;14.88;87.55
72612;BME280;60655;52.182;4.474;2022-10-31T11:30:52;101895.34;;;14.97;87.18